Aviation Digital Data Service (ADDS)

Output produced by METARs form (1851 UTC 18 April 2019)
found at http://www.aviationweather.gov/metar/data/
 
Forecast for: VOHY (HYDERABAD (CIV/M, IN)
Text: TAF VOHY 181100Z 1812/1821 36007KT 6000 SCT015 SCT025
Forecast period: 1200 to 2100 UTC 18 April 2019
Forecast type: FROM: standard forecast or significant change
Winds: from the N (360 degrees) at 8 MPH (7 knots; 3.6 m/s)
Visibility: 4 miles (6 km)
Ceiling: at least 12,000 feet AGL
Clouds: scattered clouds at 1500 feet AGL
scattered clouds at 2500 feet AGL
Weather: no significant weather forecast for this period
Text: TEMPO 1812/1818 FEW030TCU BKN100
Forecast period: 1200 to 1800 UTC 18 April 2019
Forecast type: TEMPORARY: The following changes expected for less than half the time period
Visibility: missing
Ceiling: 10000 feet AGL
Clouds: few clouds at 3000 feet AGL
broken clouds at 10000 feet AGL
Weather: no significant weather forecast for this period
Text: TEMPO 1815/1817 16007KT
Forecast period: 1500 to 1700 UTC 18 April 2019
Forecast type: TEMPORARY: The following changes expected for less than half the time period
Winds: from the SSE (160 degrees) at 8 MPH (7 knots; 3.6 m/s)
Visibility: missing
Ceiling: unknown
Clouds: missing
Weather: no significant weather forecast for this period